Time;durP1;ratioP1;P1;durP2;ratioP2;P2;SDS_P1;SDS_P2;PMS_P1;PMS_P2;Temp;Humidity;BMP_temperature;BMP_pressure;BME280_temperature;BME280_humidity;BME280_pressure;Samples;Min_cycle;Max_cycle;Signal;HPM_P1;HPM_P2
2020/12/13 00:00:46;;;;;;;108.80;61.78;;;17.20;57.70;;;;;;5013452;28;20496;-60
2020/12/13 00:03:12;;;;;;;118.25;62.03;;;17.30;58.10;;;;;;5013432;28;20026;-60
2020/12/13 00:05:38;;;;;;;114.53;63.65;;;17.40;58.50;;;;;;4996010;28;20030;-60
2020/12/13 00:08:04;;;;;;;109.28;61.30;;;17.50;58.70;;;;;;4996507;28;20030;-60
2020/12/13 00:10:29;;;;;;;119.40;65.88;;;17.60;58.70;;;;;;5017067;28;20022;-61
2020/12/13 00:12:55;;;;;;;113.75;65.20;;;17.60;59.00;;;;;;5016583;28;20528;-61
2020/12/13 00:15:22;;;;;;;116.93;63.25;;;17.70;59.20;;;;;;5016994;28;20034;-61
2020/12/13 00:17:47;;;;;;;116.60;65.20;;;17.80;59.30;;;;;;5016853;28;20046;-60
2020/12/13 00:20:13;;;;;;;115.85;64.05;;;17.70;59.60;;;;;;5016768;28;20030;-61
2020/12/13 00:22:39;;;;;;;105.32;62.35;;;17.70;59.80;;;;;;5016820;28;20033;-61
2020/12/13 00:25:05;;;;;;;104.15;60.05;;;17.70;59.90;;;;;;5016755;28;20034;-61
2020/12/13 00:27:31;;;;;;;109.72;60.83;;;17.80;59.70;;;;;;5016402;28;20033;-59
2020/12/13 00:29:56;;;;;;;108.72;60.78;;;17.90;59.70;;;;;;5017063;28;20466;-61
2020/12/13 00:32:29;;;;;;;106.03;59.17;;;17.90;59.60;;;;;;5016361;28;20057;-60
2020/12/13 00:34:58;;;;;;;110.72;57.72;;;18.00;59.80;;;;;;5016794;28;20061;-60
2020/12/13 00:37:25;;;;;;;100.68;55.20;;;18.00;60.00;;;;;;5016610;28;20061;-60
2020/12/13 00:39:51;;;;;;;106.85;58.60;;;17.90;60.20;;;;;;5016365;28;20026;-60
2020/12/13 00:42:16;;;;;;;93.00;56.05;;;17.90;60.60;;;;;;5012685;28;20037;-62
2020/12/13 00:44:43;;;;;;;104.35;57.28;;;17.80;61.00;;;;;;4995746;28;20030;-61
2020/12/13 00:47:08;;;;;;;112.43;61.15;;;17.70;61.00;;;;;;4995423;28;20034;-60
2020/12/13 00:49:35;;;;;;;152.30;83.47;;;17.70;61.10;;;;;;4996756;28;20073;-61
2020/12/13 00:52:05;;;;;;;152.88;83.72;;;17.70;61.60;;;;;;4996503;28;20023;-60
2020/12/13 00:54:31;;;;;;;160.33;88.50;;;17.60;61.80;;;;;;4996694;28;20098;-61
2020/12/13 00:56:56;;;;;;;157.50;86.72;;;17.60;62.10;;;;;;4996842;28;20034;-61
2020/12/13 00:59:22;;;;;;;158.95;84.85;;;17.60;62.10;;;;;;4995047;28;20378;-62
2020/12/13 01:01:48;;;;;;;170.90;94.10;;;17.50;62.30;;;;;;4994673;28;20035;-61
2020/12/13 01:04:13;;;;;;;179.73;100.20;;;17.50;62.60;;;;;;4995187;28;20038;-62
2020/12/13 01:06:39;;;;;;;213.38;109.70;;;17.50;62.60;;;;;;4995267;28;20026;-60
2020/12/13 01:09:05;;;;;;;222.88;117.03;;;17.50;63.00;;;;;;4995073;28;20030;-61
2020/12/13 01:11:32;;;;;;;231.60;119.30;;;17.40;62.90;;;;;;4995236;28;20037;-61
2020/12/13 01:13:59;;;;;;;218.90;116.75;;;17.40;63.00;;;;;;4995398;28;20034;-61
2020/12/13 01:16:27;;;;;;;215.88;112.85;;;17.40;63.00;;;;;;4996494;28;20481;-60
2020/12/13 01:18:53;;;;;;;196.93;104.80;;;17.40;63.30;;;;;;4995672;28;20077;-60
2020/12/13 01:21:24;;;;;;;199.15;104.03;;;17.40;63.30;;;;;;4996020;28;20100;-59
2020/12/13 01:23:50;;;;;;;187.23;99.93;;;17.30;63.20;;;;;;4996616;28;20037;-60
2020/12/13 01:26:17;;;;;;;179.18;92.38;;;17.30;63.50;;;;;;4996107;28;20026;-60
2020/12/13 01:28:44;;;;;;;190.63;92.53;;;17.40;63.00;;;;;;4995947;28;20034;-60
2020/12/13 01:31:15;;;;;;;162.70;87.25;;;17.40;62.80;;;;;;4996873;28;20046;-60
2020/12/13 01:33:41;;;;;;;164.88;86.43;;;17.40;62.60;;;;;;5015314;28;20069;-60
2020/12/13 01:36:11;;;;;;;150.18;82.65;;;17.40;62.70;;;;;;5015244;28;20385;-60
2020/12/13 01:38:36;;;;;;;158.13;84.30;;;17.30;62.50;;;;;;5015414;28;20434;-60
2020/12/13 01:41:02;;;;;;;151.93;82.50;;;17.30;62.60;;;;;;4998154;28;20323;-60
2020/12/13 01:43:28;;;;;;;144.80;77.13;;;17.30;62.80;;;;;;5015487;28;20469;-60
2020/12/13 01:45:53;;;;;;;157.55;81.03;;;17.20;63.20;;;;;;5015458;28;20413;-60
2020/12/13 01:48:20;;;;;;;137.98;78.47;;;17.20;63.20;;;;;;5014955;28;20041;-59
2020/12/13 01:51:08;;;;;;;142.10;73.53;;;17.20;63.20;;;;;;5015131;28;20037;-60
2020/12/13 01:53:37;;;;;;;137.98;74.03;;;17.20;63.30;;;;;;5015124;28;20121;-61
2020/12/13 01:56:03;;;;;;;136.82;71.03;;;17.20;63.20;;;;;;5014841;28;20026;-61
2020/12/13 01:58:33;;;;;;;122.43;66.60;;;17.10;63.50;;;;;;5014759;28;20084;-61
2020/12/13 02:01:01;;;;;;;126.70;68.18;;;17.00;64.00;;;;;;5014802;28;20033;-62
2020/12/13 02:03:43;;;;;;;137.55;72.15;;;17.00;64.00;;;;;;5014866;28;20042;-61
2020/12/13 02:06:24;;;;;;;135.15;76.03;;;17.00;64.10;;;;;;5015122;28;20036;-60
2020/12/13 02:08:51;;;;;;;170.35;88.35;;;17.00;63.90;;;;;;5014935;28;20022;-61
2020/12/13 02:11:19;;;;;;;191.80;104.53;;;17.10;63.80;;;;;;5014702;28;20029;-60
2020/12/13 02:13:48;;;;;;;233.43;120.68;;;17.10;64.20;;;;;;5014731;28;20137;-60
2020/12/13 02:16:14;;;;;;;248.40;130.52;;;17.30;64.00;;;;;;5014699;28;20026;-60
2020/12/13 02:18:41;;;;;;;234.95;122.45;;;17.40;63.60;;;;;;5014536;28;20474;-60
2020/12/13 02:21:10;;;;;;;233.70;120.13;;;17.50;63.20;;;;;;5014668;28;20387;-60
2020/12/13 02:23:40;;;;;;;213.90;109.43;;;17.50;62.90;;;;;;5014266;28;20038;-60
2020/12/13 02:26:10;;;;;;;211.13;106.10;;;17.70;62.80;;;;;;5014594;28;20026;-60
2020/12/13 02:28:36;;;;;;;;;;;17.80;62.60;;;;;;5014972;28;20022;-60
2020/12/13 02:31:03;;;;;;;177.02;93.57;;;17.80;62.50;;;;;;5013800;28;19905;-60
2020/12/13 02:33:29;;;;;;;173.00;91.53;;;17.70;62.60;;;;;;5014465;28;20429;-61
2020/12/13 02:35:55;;;;;;;171.55;90.05;;;17.70;62.60;;;;;;5014234;28;20485;-60
2020/12/13 02:38:21;;;;;;;173.10;89.00;;;17.90;62.30;;;;;;4996646;28;20025;-60
2020/12/13 02:40:46;;;;;;;162.55;86.30;;;17.90;62.40;;;;;;5014122;28;20025;-60
2020/12/13 02:43:12;;;;;;;157.40;85.55;;;17.90;62.20;;;;;;5014237;28;20645;-60
2020/12/13 02:45:37;;;;;;;160.35;86.15;;;18.00;61.70;;;;;;5014268;28;20026;-60
2020/12/13 02:48:03;;;;;;;145.73;80.15;;;17.90;62.10;;;;;;5014033;28;20065;-60
2020/12/13 02:50:31;;;;;;;148.93;81.90;;;17.90;62.50;;;;;;5013956;28;20113;-60
2020/12/13 02:53:00;;;;;;;152.43;78.45;;;17.90;62.60;;;;;;5014080;28;20030;-61
2020/12/13 02:55:26;;;;;;;144.30;77.40;;;17.80;63.00;;;;;;5014158;28;20025;-60
2020/12/13 02:57:52;;;;;;;146.43;74.90;;;17.70;63.20;;;;;;4996977;28;20080;-60
2020/12/13 03:00:18;;;;;;;144.68;77.35;;;17.70;63.30;;;;;;5014336;28;20026;-60
2020/12/13 03:02:43;;;;;;;142.38;74.07;;;17.70;63.40;;;;;;5014204;28;20114;-60
2020/12/13 03:05:09;;;;;;;133.45;70.80;;;17.60;63.60;;;;;;5013926;28;20054;-60
2020/12/13 03:07:35;;;;;;;122.28;69.75;;;17.60;63.60;;;;;;5013428;28;20084;-60
2020/12/13 03:10:01;;;;;;;133.55;69.43;;;17.50;63.70;;;;;;5013785;28;20378;-60
2020/12/13 03:12:26;;;;;;;129.50;68.55;;;17.50;63.80;;;;;;5013686;28;20030;-60
2020/12/13 03:14:53;;;;;;;120.95;67.15;;;17.40;63.90;;;;;;5014241;28;20462;-60
2020/12/13 03:17:19;;;;;;;120.03;64.30;;;17.40;64.00;;;;;;5013631;28;20382;-60
2020/12/13 03:19:45;;;;;;;112.85;62.50;;;17.40;64.10;;;;;;5013945;28;20033;-60
2020/12/13 03:22:10;;;;;;;115.30;63.47;;;17.40;64.20;;;;;;5013734;28;20034;-60
2020/12/13 03:24:36;;;;;;;114.43;61.58;;;17.30;64.30;;;;;;5013737;28;20137;-60
2020/12/13 03:27:01;;;;;;;108.57;61.00;;;17.30;64.30;;;;;;5013753;28;20018;-60
2020/12/13 03:29:27;;;;;;;118.85;61.70;;;17.30;64.50;;;;;;5013812;28;20049;-60
2020/12/13 03:31:53;;;;;;;112.80;61.25;;;17.30;64.40;;;;;;5013534;28;20022;-60
2020/12/13 03:34:18;;;;;;;107.82;60.22;;;17.20;64.40;;;;;;5013705;28;20070;-60
2020/12/13 03:36:44;;;;;;;108.10;56.95;;;17.20;64.50;;;;;;5013420;28;20069;-60
2020/12/13 03:39:09;;;;;;;104.53;56.15;;;17.20;64.30;;;;;;5013728;28;20048;-60
2020/12/13 03:41:35;;;;;;;98.63;53.85;;;17.20;64.00;;;;;;5013479;28;20030;-60
2020/12/13 03:44:00;;;;;;;102.20;53.67;;;17.20;64.30;;;;;;5017822;28;20033;-60
2020/12/13 03:46:26;;;;;;;98.15;54.95;;;17.20;64.20;;;;;;5017385;28;20482;-60
2020/12/13 03:48:52;;;;;;;101.45;54.78;;;17.20;64.00;;;;;;5017220;28;20037;-60
2020/12/13 03:51:17;;;;;;;106.95;53.92;;;17.20;63.90;;;;;;5017424;28;20034;-60
2020/12/13 03:53:43;;;;;;;93.13;49.55;;;17.20;63.80;;;;;;5017372;28;20034;-60
2020/12/13 03:56:08;;;;;;;96.10;52.05;;;17.20;63.80;;;;;;5012067;28;20428;-60
2020/12/13 03:58:34;;;;;;;94.88;49.55;;;17.20;63.90;;;;;;4997496;28;20076;-60
2020/12/13 04:01:00;;;;;;;91.45;49.03;;;17.10;64.10;;;;;;4995692;28;20027;-62
2020/12/13 04:03:25;;;;;;;95.45;50.17;;;17.10;64.20;;;;;;4995948;28;20092;-60
2020/12/13 04:05:51;;;;;;;84.38;46.90;;;17.00;64.40;;;;;;4997548;28;20026;-60
2020/12/13 04:08:16;;;;;;;85.30;46.88;;;17.00;64.40;;;;;;4997498;28;20058;-60
2020/12/13 04:10:42;;;;;;;90.25;47.40;;;17.00;64.40;;;;;;4997259;28;20028;-60
2020/12/13 04:13:08;;;;;;;89.30;47.80;;;16.90;64.70;;;;;;4997341;28;20035;-60
2020/12/13 04:15:33;;;;;;;85.38;46.22;;;16.90;64.60;;;;;;4997279;28;20037;-60
2020/12/13 04:17:59;;;;;;;83.68;44.83;;;17.00;64.70;;;;;;4997504;28;20057;-60
2020/12/13 04:20:24;;;;;;;83.43;45.15;;;17.00;64.70;;;;;;4997282;28;20023;-60
2020/12/13 04:22:50;;;;;;;82.68;44.42;;;17.00;64.60;;;;;;4997517;28;20375;-60
2020/12/13 04:25:16;;;;;;;78.80;42.28;;;17.10;64.60;;;;;;4997229;28;20447;-60
2020/12/13 04:27:41;;;;;;;76.85;40.15;;;17.20;64.40;;;;;;4997335;28;20026;-59
2020/12/13 04:30:07;;;;;;;75.93;40.95;;;17.30;64.20;;;;;;4997166;28;20022;-60
2020/12/13 04:32:33;;;;;;;77.82;41.17;;;17.40;63.80;;;;;;4997032;28;20038;-60
2020/12/13 04:34:59;;;;;;;76.45;39.70;;;17.50;63.40;;;;;;4996931;28;20062;-60
2020/12/13 04:37:25;;;;;;;77.25;40.13;;;17.70;63.00;;;;;;4996683;28;20031;-60
2020/12/13 04:39:53;;;;;;;82.78;42.60;;;17.90;62.40;;;;;;4996839;28;20062;-60
2020/12/13 04:42:21;;;;;;;67.82;37.63;;;18.00;62.10;;;;;;4996933;28;20027;-60
2020/12/13 04:44:47;;;;;;;68.57;38.90;;;18.00;62.00;;;;;;4996935;28;20180;-60
2020/12/13 04:47:17;;;;;;;69.25;37.03;;;17.90;62.40;;;;;;4996685;28;20455;-60
2020/12/13 04:49:46;;;;;;;70.40;37.20;;;17.90;62.60;;;;;;4996755;28;20034;-60
2020/12/13 04:52:12;;;;;;;67.28;37.22;;;17.90;62.40;;;;;;4996518;28;20022;-60
2020/12/13 04:54:50;;;;;;;66.90;37.47;;;18.10;62.20;;;;;;4995747;28;20070;-60
2020/12/13 04:57:17;;;;;;;63.75;37.03;;;18.10;62.00;;;;;;4996647;28;20113;-60
2020/12/13 04:59:44;;;;;;;68.07;35.38;;;18.00;62.20;;;;;;4996398;28;20041;-60
2020/12/13 05:02:12;;;;;;;60.40;34.38;;;18.10;62.20;;;;;;4996232;28;20034;-60
2020/12/13 05:04:38;;;;;;;62.58;35.13;;;18.00;62.20;;;;;;4996358;28;20562;-60
2020/12/13 05:07:03;;;;;;;62.30;33.42;;;18.10;62.10;;;;;;4996435;28;20113;-60
2020/12/13 05:09:29;;;;;;;58.00;32.78;;;18.10;62.00;;;;;;4996479;28;20109;-60
2020/12/13 05:11:54;;;;;;;58.13;32.45;;;18.20;62.00;;;;;;4996429;28;20382;-60
2020/12/13 05:14:20;;;;;;;58.83;33.58;;;18.20;61.90;;;;;;4996186;28;20030;-60
2020/12/13 05:16:46;;;;;;;59.53;32.22;;;18.30;61.70;;;;;;4996152;28;20022;-60
2020/12/13 05:19:13;;;;;;;56.38;30.40;;;18.30;61.70;;;;;;4996313;28;20360;-60
2020/12/13 05:21:38;;;;;;;56.78;32.05;;;18.30;61.50;;;;;;4996168;28;20035;-59
2020/12/13 05:24:05;;;;;;;58.67;31.10;;;18.40;61.30;;;;;;4995985;28;20134;-60
2020/12/13 05:26:31;;;;;;;50.72;27.73;;;18.40;61.10;;;;;;4996220;28;20041;-60
2020/12/13 05:29:00;;;;;;;49.05;27.88;;;18.50;60.90;;;;;;4996040;28;20034;-60
2020/12/13 05:31:28;;;;;;;48.80;28.27;;;18.50;60.90;;;;;;4995783;28;20379;-60
2020/12/13 05:34:03;;;;;;;55.58;30.17;;;18.60;60.70;;;;;;4996043;28;20043;-60
2020/12/13 05:36:31;;;;;;;54.60;29.05;;;18.70;60.60;;;;;;4995639;28;20037;-60
2020/12/13 05:39:00;;;;;;;47.55;26.60;;;18.70;60.40;;;;;;4995859;28;20029;-60
2020/12/13 05:41:31;;;;;;;51.53;28.70;;;18.80;60.10;;;;;;4995711;28;20542;-59
2020/12/13 05:51:39;;;;;;;45.88;25.80;;;18.90;59.60;;;;;;4995724;28;20146;-60
2020/12/13 05:54:18;;;;;;;47.50;25.60;;;19.00;59.60;;;;;;4995454;28;20035;-60
2020/12/13 05:56:45;;;;;;;46.92;24.88;;;19.10;59.40;;;;;;4995921;28;20041;-59
2020/12/13 05:59:11;;;;;;;42.97;24.50;;;19.30;59.20;;;;;;4995305;28;20033;-60
2020/12/13 06:01:38;;;;;;;43.45;24.30;;;19.40;58.90;;;;;;4995552;28;20027;-60
2020/12/13 06:04:10;;;;;;;39.83;23.58;;;19.40;58.70;;;;;;4995335;28;20466;-60
2020/12/13 06:06:41;;;;;;;43.40;24.38;;;19.40;58.70;;;;;;4995267;28;20438;-60
2020/12/13 06:09:12;;;;;;;43.20;24.92;;;19.40;58.70;;;;;;4995298;28;20035;-60
2020/12/13 06:11:41;;;;;;;36.35;21.63;;;19.50;58.60;;;;;;4995126;28;20030;-60
2020/12/13 06:14:20;;;;;;;38.78;22.58;;;19.50;58.40;;;;;;4994952;28;20047;-60
2020/12/13 06:16:47;;;;;;;41.60;22.00;;;19.50;58.40;;;;;;4994980;28;20121;-60
2020/12/13 06:19:17;;;;;;;41.45;23.00;;;19.50;58.60;;;;;;4994898;28;20456;-60
2020/12/13 06:21:46;;;;;;;35.40;20.08;;;19.40;58.70;;;;;;4994977;28;20026;-60
2020/12/13 06:24:12;;;;;;;40.53;21.27;;;19.40;58.90;;;;;;4994918;28;20030;-60
2020/12/13 06:26:38;;;;;;;38.47;20.75;;;19.30;58.90;;;;;;4995093;28;20053;-60
2020/12/13 06:29:05;;;;;;;37.00;21.00;;;19.30;59.60;;;;;;4995033;28;20034;-60
2020/12/13 06:31:33;;;;;;;36.90;20.27;;;19.20;59.20;;;;;;4994825;28;20152;-60
2020/12/13 06:33:59;;;;;;;36.42;21.30;;;19.20;59.20;;;;;;4994934;28;20053;-60
2020/12/13 06:36:26;;;;;;;37.05;19.52;;;19.20;59.30;;;;;;4995027;28;20036;-59
2020/12/13 06:38:53;;;;;;;32.72;19.77;;;19.10;60.00;;;;;;4994626;28;20405;-60
2020/12/13 06:41:23;;;;;;;34.08;19.10;;;19.10;59.50;;;;;;4994732;28;20041;-60
2020/12/13 06:43:55;;;;;;;35.85;19.77;;;19.00;59.50;;;;;;4994699;28;20026;-60
2020/12/13 06:46:23;;;;;;;31.42;17.67;;;19.00;59.70;;;;;;4994962;28;20023;-60
2020/12/13 06:48:49;;;;;;;31.38;17.25;;;18.90;59.80;;;;;;4994532;28;20031;-60
2020/12/13 06:51:24;;;;;;;35.85;19.02;;;18.80;60.10;;;;;;4994580;28;20034;-60
2020/12/13 06:53:50;;;;;;;30.77;17.83;;;18.80;60.30;;;;;;4994648;28;20035;-59
2020/12/13 06:56:18;;;;;;;28.58;17.67;;;18.80;60.00;;;;;;4994472;28;20360;-60
2020/12/13 06:58:47;;;;;;;31.00;16.60;;;18.80;60.20;;;;;;4994551;28;20108;-60
2020/12/13 07:01:20;;;;;;;28.92;17.70;;;18.90;59.90;;;;;;4994431;28;20037;-60
2020/12/13 07:03:49;;;;;;;29.85;16.00;;;18.80;60.10;;;;;;4994404;28;20026;-60
2020/12/13 07:06:19;;;;;;;26.90;15.10;;;18.80;60.00;;;;;;4994585;28;20027;-60
2020/12/13 07:08:51;;;;;;;24.58;15.00;;;18.80;59.80;;;;;;4994407;28;20084;-60
2020/12/13 07:11:18;;;;;;;27.45;15.23;;;18.70;60.00;;;;;;4994579;28;20433;-60
2020/12/13 07:13:45;;;;;;;26.98;15.02;;;18.60;60.20;;;;;;4994324;28;20386;-60
2020/12/13 07:16:23;;;;;;;27.83;16.17;;;18.50;60.50;;;;;;4994457;28;20110;-60
2020/12/13 07:19:03;;;;;;;23.75;14.15;;;18.40;60.70;;;;;;5000773;28;20442;-60
2020/12/13 07:21:29;;;;;;;27.38;13.75;;;18.30;60.90;;;;;;5000765;28;20041;-60
2020/12/13 07:23:58;;;;;;;26.85;15.32;;;18.30;61.10;;;;;;5000554;28;20038;-60
2020/12/13 07:26:26;;;;;;;26.48;13.63;;;18.40;61.00;;;;;;5000677;28;20030;-60
2020/12/13 07:28:53;;;;;;;22.00;12.80;;;18.40;61.10;;;;;;5000961;28;20360;-60
2020/12/13 07:31:19;;;;;;;28.17;13.70;;;18.40;60.80;;;;;;5000702;28;20110;-60
2020/12/13 07:33:46;;;;;;;26.73;13.80;;;18.60;60.30;;;;;;5000503;28;20038;-60
2020/12/13 07:36:12;;;;;;;23.02;13.07;;;18.70;60.00;;;;;;5000659;28;20427;-60
2020/12/13 07:38:39;;;;;;;21.50;12.50;;;18.70;59.80;;;;;;5000677;28;20061;-60
2020/12/13 07:41:22;;;;;;;25.23;12.88;;;18.70;60.00;;;;;;5000548;28;20022;-60
2020/12/13 07:43:55;;;;;;;22.23;12.15;;;18.80;59.70;;;;;;5000481;28;20034;-59
2020/12/13 07:46:21;;;;;;;25.40;13.43;;;18.90;59.50;;;;;;5000591;28;20112;-60
2020/12/13 07:48:47;;;;;;;21.90;12.25;;;18.90;59.40;;;;;;5000226;28;20374;-59
2020/12/13 07:51:13;;;;;;;21.50;11.73;;;19.00;59.30;;;;;;4983500;28;20038;-60
2020/12/13 07:53:38;;;;;;;23.30;12.80;;;18.90;59.20;;;;;;4983275;28;20113;-60
2020/12/13 07:56:04;;;;;;;23.98;13.20;;;18.90;59.30;;;;;;5000469;28;20030;-60
2020/12/13 07:58:30;;;;;;;22.25;12.05;;;18.90;59.30;;;;;;5000299;28;20030;-60
2020/12/13 08:01:11;;;;;;;22.55;12.40;;;18.90;59.50;;;;;;5000152;28;20026;-59
2020/12/13 08:03:43;;;;;;;21.60;12.40;;;18.80;59.70;;;;;;5000451;28;20064;-59
2020/12/13 08:06:10;;;;;;;19.48;11.50;;;18.80;60.00;;;;;;5000566;28;20030;-60
2020/12/13 08:08:43;;;;;;;20.65;11.40;;;18.80;60.00;;;;;;5000519;28;20029;-60
2020/12/13 08:11:11;;;;;;;19.42;11.07;;;18.80;59.90;;;;;;5000317;28;20026;-60
2020/12/13 08:13:36;;;;;;;20.00;11.98;;;18.80;59.60;;;;;;5000014;28;20536;-60
2020/12/13 08:16:03;;;;;;;18.92;10.00;;;18.90;59.60;;;;;;5000359;28;20030;-60
2020/12/13 08:18:30;;;;;;;18.83;10.50;;;18.80;59.80;;;;;;5000194;28;20054;-60
2020/12/13 08:20:57;;;;;;;17.85;10.05;;;18.70;60.00;;;;;;5000197;28;20519;-60
2020/12/13 08:23:26;;;;;;;22.25;11.23;;;18.70;60.20;;;;;;5000318;28;20034;-60
2020/12/13 08:25:53;;;;;;;21.13;10.85;;;18.60;60.50;;;;;;5000191;28;20039;-61
2020/12/13 08:28:18;;;;;;;19.00;10.23;;;18.50;60.60;;;;;;4998837;28;20045;-60
2020/12/13 08:30:44;;;;;;;18.70;10.73;;;18.50;60.80;;;;;;4996489;28;20018;-60
2020/12/13 08:33:10;;;;;;;19.60;10.98;;;18.50;60.90;;;;;;4996857;28;20363;-60
2020/12/13 08:35:36;;;;;;;18.83;9.90;;;18.40;61.00;;;;;;4996419;28;20489;-60
2020/12/13 08:38:03;;;;;;;21.73;10.32;;;18.40;61.00;;;;;;4996804;28;20033;-60
2020/12/13 08:40:40;;;;;;;16.63;8.85;;;18.40;61.30;;;;;;4996964;28;20113;-60
2020/12/13 08:43:07;;;;;;;16.35;9.55;;;18.30;61.30;;;;;;4996877;28;20034;-60
2020/12/13 08:45:33;;;;;;;18.17;10.27;;;18.30;61.50;;;;;;4997121;28;20113;-59
2020/12/13 08:48:01;;;;;;;17.48;8.75;;;18.30;61.50;;;;;;4996761;28;20449;-60
2020/12/13 08:50:27;;;;;;;18.00;10.07;;;18.30;61.60;;;;;;4996284;28;20041;-60
2020/12/13 08:52:53;;;;;;;18.70;10.25;;;18.20;61.80;;;;;;4996538;28;20089;-60
2020/12/13 08:55:26;;;;;;;15.90;10.27;;;18.20;61.90;;;;;;4997038;28;20419;-59
2020/12/13 08:57:59;;;;;;;19.48;10.15;;;18.20;61.80;;;;;;4996294;28;20501;-59
2020/12/13 09:00:27;;;;;;;16.45;9.57;;;18.20;61.90;;;;;;4996486;28;20037;-60
2020/12/13 09:03:04;;;;;;;15.50;8.68;;;18.10;62.00;;;;;;4996581;28;20474;-60
2020/12/13 09:05:33;;;;;;;15.07;8.25;;;18.10;61.80;;;;;;4996251;28;20113;-60
2020/12/13 09:07:59;;;;;;;14.43;8.43;;;18.20;61.60;;;;;;4996493;28;20026;-59
2020/12/13 09:10:26;;;;;;;17.77;9.18;;;18.10;61.60;;;;;;4996252;28;20037;-60
2020/12/13 09:12:52;;;;;;;15.23;8.35;;;18.20;61.60;;;;;;4996245;28;20096;-60
2020/12/13 09:15:21;;;;;;;15.68;8.77;;;18.10;61.60;;;;;;4996232;28;20022;-60
2020/12/13 09:17:59;;;;;;;17.92;9.07;;;18.20;61.50;;;;;;4996174;28;20093;-60
2020/12/13 09:20:33;;;;;;;17.40;8.25;;;18.10;61.80;;;;;;4996676;28;20391;-60
2020/12/13 09:23:05;;;;;;;16.58;9.05;;;17.90;62.20;;;;;;4995933;28;20394;-60
2020/12/13 09:25:44;;;;;;;12.55;7.80;;;17.90;62.50;;;;;;4996327;28;20433;-59
2020/12/13 09:28:11;;;;;;;15.93;7.75;;;17.80;62.60;;;;;;4996121;28;20088;-60
2020/12/13 09:30:38;;;;;;;15.07;8.75;;;17.80;62.70;;;;;;4996200;28;20463;-60
2020/12/13 09:33:05;;;;;;;17.27;8.60;;;17.70;63.00;;;;;;4995928;28;20038;-60
2020/12/13 09:35:31;;;;;;;15.13;8.13;;;17.70;63.20;;;;;;4995931;28;20081;-60
2020/12/13 09:38:01;;;;;;;11.85;7.45;;;17.70;63.30;;;;;;4996057;28;20041;-59
2020/12/13 09:40:28;;;;;;;15.38;8.57;;;17.60;63.50;;;;;;4995495;28;20030;-60
2020/12/13 09:42:57;;;;;;;12.73;6.63;;;17.60;63.40;;;;;;4995769;28;20205;-60
2020/12/13 09:45:23;;;;;;;15.40;8.00;;;17.70;63.30;;;;;;4995817;28;20501;-60
2020/12/13 09:47:49;;;;;;;13.43;8.00;;;17.70;63.10;;;;;;4995461;28;20061;-59
2020/12/13 09:50:17;;;;;;;11.85;7.07;;;17.80;62.80;;;;;;4995481;28;20037;-60
2020/12/13 09:52:43;;;;;;;13.15;7.05;;;17.90;62.40;;;;;;4995650;28;20085;-60
2020/12/13 09:55:09;;;;;;;12.75;7.35;;;18.00;61.90;;;;;;4995465;28;20034;-60
2020/12/13 09:57:36;;;;;;;14.05;6.97;;;18.10;61.50;;;;;;4995513;28;20026;-60
2020/12/13 10:00:06;;;;;;;14.25;7.40;;;18.20;61.30;;;;;;4995601;28;20096;-61
2020/12/13 10:02:32;;;;;;;13.25;6.93;;;18.30;60.90;;;;;;4995364;28;20022;-59
2020/12/13 10:04:58;;;;;;;12.27;6.93;;;18.40;59.00;;;;;;4995373;28;20036;-59
2020/12/13 10:09:49;;;;;;;11.55;7.13;;;18.60;59.20;;;;;;4995287;28;20030;-59
2020/12/13 10:12:15;;;;;;;15.82;8.13;;;18.70;59.80;;;;;;4994939;28;20037;-56
2020/12/13 10:14:40;;;;;;;14.00;6.88;;;18.90;59.20;;;;;;4995148;28;20034;-59
2020/12/13 10:17:07;;;;;;;15.77;6.40;;;19.00;59.20;;;;;;4995130;28;20133;-57
2020/12/13 10:19:32;;;;;;;21.35;7.32;;;19.20;58.40;;;;;;4995068;28;20026;-58
2020/12/13 10:21:59;;;;;;;15.45;7.10;;;19.20;57.70;;;;;;4994814;28;20054;-57
2020/12/13 10:24:24;;;;;;;15.05;6.68;;;19.40;57.50;;;;;;4997881;28;20033;-59
2020/12/13 10:26:50;;;;;;;45.63;26.02;;;19.40;57.00;;;;;;5032148;28;20116;-59
2020/12/13 10:29:16;;;;;;;84.28;46.25;;;19.40;56.30;;;;;;5016595;28;20047;-58
2020/12/13 10:31:43;;;;;;;104.22;53.63;;;19.40;55.40;;;;;;5033821;28;20104;-59
2020/12/13 10:34:11;;;;;;;113.22;58.80;;;19.40;54.80;;;;;;5034217;28;20458;-60
2020/12/13 10:36:38;;;;;;;136.50;70.32;;;19.30;54.10;;;;;;5034098;28;20048;-58
2020/12/13 10:39:06;;;;;;;151.75;81.35;;;19.30;53.50;;;;;;5033946;28;20033;-57
2020/12/13 10:41:32;;;;;;;151.15;85.20;;;19.20;53.00;;;;;;5013734;28;20109;-57
2020/12/13 10:43:59;;;;;;;124.15;69.18;;;19.20;52.40;;;;;;5014185;28;20034;-58
2020/12/13 10:46:24;;;;;;;107.75;59.70;;;19.20;52.50;;;;;;5014329;28;20033;-59
2020/12/13 10:48:50;;;;;;;95.45;55.45;;;19.10;52.00;;;;;;4996397;28;20038;-58
2020/12/13 10:51:18;;;;;;;84.35;51.40;;;19.10;51.90;;;;;;5013705;28;20018;-59
2020/12/13 10:53:44;;;;;;;79.30;44.97;;;19.00;51.50;;;;;;5013849;28;20045;-59
2020/12/13 10:56:10;;;;;;;76.22;43.10;;;19.00;51.20;;;;;;5013676;28;20030;-55
2020/12/13 10:58:38;;;;;;;59.90;35.22;;;19.00;51.50;;;;;;5014060;28;20113;-56
2020/12/13 11:01:03;;;;;;;38.65;23.83;;;18.80;51.50;;;;;;5014032;28;20104;-55
2020/12/13 11:03:29;;;;;;;28.60;15.70;;;18.50;49.50;;;;;;5014180;28;20462;-53
2020/12/13 11:05:55;;;;;;;16.50;10.48;;;18.40;47.80;;;;;;5013702;28;20065;-55
2020/12/13 11:08:22;;;;;;;17.50;7.57;;;18.30;46.90;;;;;;5014086;28;20446;-55
2020/12/13 11:10:49;;;;;;;30.90;9.70;;;18.20;46.40;;;;;;5013686;28;20030;-57
2020/12/13 11:13:15;;;;;;;23.00;9.95;;;18.20;47.10;;;;;;5013743;28;20034;-55
2020/12/13 11:15:45;;;;;;;27.27;9.20;;;18.40;47.70;;;;;;5013862;28;20034;-60
2020/12/13 11:18:11;;;;;;;24.27;8.15;;;18.50;48.70;;;;;;5013984;28;20080;-60
2020/12/13 11:20:37;;;;;;;18.98;8.18;;;18.70;49.10;;;;;;5013884;28;20419;-60
2020/12/13 11:23:03;;;;;;;26.92;8.90;;;18.70;49.60;;;;;;5013861;28;20030;-61
2020/12/13 11:25:28;;;;;;;22.00;9.25;;;18.70;50.00;;;;;;5013672;28;20109;-60
2020/12/13 11:27:54;;;;;;;21.95;8.95;;;18.70;50.00;;;;;;5013725;28;20048;-60
2020/12/13 11:30:20;;;;;;;23.90;8.52;;;18.90;50.00;;;;;;5013858;28;20375;-60
2020/12/13 11:32:45;;;;;;;19.88;8.55;;;19.00;49.80;;;;;;5013755;28;20018;-60
2020/12/13 11:35:13;;;;;;;17.23;7.38;;;19.00;50.30;;;;;;5013736;28;20026;-60
2020/12/13 11:37:39;;;;;;;17.25;7.22;;;19.00;50.30;;;;;;5014124;28;20030;-60
2020/12/13 11:40:06;;;;;;;16.90;7.25;;;19.10;50.60;;;;;;5013589;28;20034;-60
2020/12/13 11:42:31;;;;;;;15.93;8.30;;;19.00;50.80;;;;;;5013540;28;20029;-59
2020/12/13 11:44:58;;;;;;;15.30;7.82;;;19.00;50.90;;;;;;5013558;28;20026;-60
2020/12/13 11:47:24;;;;;;;17.77;7.22;;;19.00;51.10;;;;;;5013691;28;20018;-60
2020/12/13 11:49:50;;;;;;;24.00;7.90;;;19.00;51.30;;;;;;5013615;28;20049;-60
2020/12/13 11:52:16;;;;;;;11.10;6.72;;;19.00;51.50;;;;;;5013605;28;20466;-60
2020/12/13 11:54:41;;;;;;;19.40;7.53;;;18.90;51.70;;;;;;5013569;28;20072;-60
2020/12/13 11:57:07;;;;;;;16.27;8.15;;;18.90;52.00;;;;;;5013569;28;20382;-60
2020/12/13 11:59:32;;;;;;;12.55;6.95;;;18.90;52.20;;;;;;5013355;28;20073;-60
2020/12/13 12:01:58;;;;;;;14.93;6.75;;;18.80;52.40;;;;;;5013595;28;20030;-60
2020/12/13 12:07:08;;;;;;;14.10;6.68;;;18.80;52.70;;;;;;5017566;28;20378;-59
2020/12/13 12:09:33;;;;;;;17.80;7.25;;;18.70;52.90;;;;;;5016970;28;20022;-59
2020/12/13 12:11:59;;;;;;;17.40;7.57;;;18.60;53.60;;;;;;5017218;28;20481;-56
2020/12/13 12:14:25;;;;;;;14.27;7.32;;;18.90;54.00;;;;;;5016973;28;20463;-57
2020/12/13 12:16:50;;;;;;;15.45;6.75;;;19.10;53.90;;;;;;5016795;28;20381;-60
2020/12/13 12:19:16;;;;;;;17.67;7.95;;;19.20;53.80;;;;;;5017296;28;20034;-59
2020/12/13 12:21:50;;;;;;;17.98;7.85;;;19.20;54.10;;;;;;5017170;28;20401;-59
2020/12/13 12:24:20;;;;;;;14.90;8.10;;;19.10;54.20;;;;;;5016971;28;20116;-59
2020/12/13 12:26:51;;;;;;;15.70;8.17;;;19.00;59.40;;;;;;5016805;28;20034;-59
2020/12/13 12:29:18;;;;;;;13.23;7.72;;;18.90;60.70;;;;;;5017351;28;20268;-60
2020/12/13 12:31:44;;;;;;;18.27;7.38;;;18.80;62.70;;;;;;5016551;28;20058;-59
2020/12/13 12:34:10;;;;;;;21.77;8.35;;;18.80;63.20;;;;;;5016150;28;20034;-56
2020/12/13 12:36:36;;;;;;;17.00;6.95;;;18.70;63.00;;;;;;5016589;28;20033;-60
2020/12/13 12:39:01;;;;;;;18.48;8.73;;;18.70;60.40;;;;;;5016642;28;20109;-60